createdAt,value
2023-03-29T00:00:19.225Z,93.70
2023-03-29T00:01:52.373Z,93.50
2023-03-29T00:03:25.419Z,93.60
2023-03-29T00:05:01.995Z,93.70
2023-03-29T00:06:35.242Z,93.60
2023-03-29T00:08:08.292Z,93.40
2023-03-29T00:09:41.455Z,93.50
2023-03-29T00:11:14.456Z,93.60
2023-03-29T00:12:48.835Z,93.70
2023-03-29T00:14:21.835Z,93.70
2023-03-29T00:15:56.080Z,93.70
2023-03-29T00:17:29.170Z,93.90
2023-03-29T00:19:02.214Z,93.80
2023-03-29T00:20:35.271Z,93.80
2023-03-29T00:22:08.178Z,93.70
2023-03-29T00:23:41.155Z,93.60
2023-03-29T00:25:14.848Z,93.70
2023-03-29T00:26:47.728Z,94.00
2023-03-29T00:28:22.771Z,94.10
2023-03-29T00:29:56.213Z,94.40
2023-03-29T00:31:29.521Z,95.00
2023-03-29T00:33:02.531Z,94.90
2023-03-29T00:34:36.206Z,95.10
2023-03-29T00:36:10.335Z,95.50
2023-03-29T00:37:43.383Z,95.60
2023-03-29T00:39:15.275Z,95.80
2023-03-29T00:40:48.400Z,95.70
2023-03-29T00:42:21.333Z,95.80
2023-03-29T00:44:00.306Z,95.90
2023-03-29T00:45:35.901Z,96.10
2023-03-29T00:47:07.854Z,96.20
2023-03-29T00:48:41.164Z,96.40
2023-03-29T00:50:16.525Z,96.40
2023-03-29T00:51:49.734Z,96.30
2023-03-29T00:53:27.183Z,96.40
2023-03-29T00:55:05.222Z,96.40
2023-03-29T00:56:41.434Z,96.40
2023-03-29T00:58:16.813Z,96.40
2023-03-29T00:59:51.894Z,96.30
2023-03-29T01:01:30.500Z,96.40
2023-03-29T01:03:13.565Z,96.50
2023-03-29T01:04:50.352Z,96.50
2023-03-29T01:06:25.992Z,96.60
2023-03-29T01:08:02.497Z,96.70
2023-03-29T01:09:38.791Z,96.90
2023-03-29T01:11:18.106Z,97.10
2023-03-29T01:12:53.401Z,97.10
2023-03-29T01:14:31.742Z,96.90
2023-03-29T01:16:08.975Z,96.90
2023-03-29T01:17:43.375Z,97.10
2023-03-29T01:19:21.446Z,97.10
2023-03-29T01:21:08.475Z,97.00
2023-03-29T01:22:55.061Z,97.10
2023-03-29T01:24:43.901Z,97.10
2023-03-29T01:26:24.905Z,97.10
2023-03-29T01:28:03.658Z,96.90
2023-03-29T01:29:40.241Z,96.90
2023-03-29T01:31:18.062Z,97.10
2023-03-29T01:32:56.854Z,96.90
2023-03-29T01:34:37.326Z,96.80
2023-03-29T01:36:16.466Z,96.80
2023-03-29T01:37:56.657Z,96.80
2023-03-29T01:39:29.795Z,96.90
2023-03-29T01:41:04.125Z,97.00
2023-03-29T01:42:46.527Z,97.00
2023-03-29T01:44:28.357Z,96.70
2023-03-29T01:46:45.348Z,96.90
2023-03-29T01:48:24.426Z,97.10
2023-03-29T01:50:03.973Z,97.30
2023-03-29T01:51:39.749Z,97.60
2023-03-29T01:53:18.215Z,97.80
2023-03-29T01:54:55.919Z,98.20
2023-03-29T01:56:32.092Z,98.70
2023-03-29T01:58:06.634Z,99.20
2023-03-29T01:59:44.982Z,99.20
2023-03-29T02:01:23.001Z,99.30
2023-03-29T02:03:00.216Z,99.40
2023-03-29T02:04:37.258Z,99.90
2023-03-29T02:06:12.994Z,99.90
2023-03-29T02:07:48.590Z,99.90
2023-03-29T02:09:21.966Z,99.90
2023-03-29T02:10:55.357Z,99.90
2023-03-29T02:12:28.827Z,99.90
2023-03-29T02:14:02.182Z,99.90
2023-03-29T02:15:36.598Z,99.90
2023-03-29T02:17:16.603Z,99.90
2023-03-29T02:18:52.788Z,99.90
2023-03-29T02:20:31.555Z,99.90
2023-03-29T02:22:08.362Z,99.90
2023-03-29T02:23:46.635Z,99.90
2023-03-29T02:25:22.524Z,99.90
2023-03-29T02:26:55.815Z,99.90
2023-03-29T02:28:29.418Z,99.90
2023-03-29T02:30:02.489Z,99.90
2023-03-29T02:31:41.201Z,99.90
2023-03-29T02:33:17.926Z,99.90
2023-03-29T02:34:56.426Z,99.90
2023-03-29T02:36:34.717Z,99.90
2023-03-29T02:38:11.561Z,99.90
2023-03-29T02:39:44.985Z,99.90
2023-03-29T02:41:18.106Z,99.90
2023-03-29T02:42:50.709Z,99.90
2023-03-29T02:44:27.700Z,99.90
2023-03-29T02:46:01.396Z,99.90
2023-03-29T02:47:42.289Z,99.90
2023-03-29T02:49:15.778Z,99.90
2023-03-29T02:50:52.239Z,99.90
2023-03-29T02:52:29.280Z,99.90
2023-03-29T02:54:08.302Z,99.90
2023-03-29T02:55:41.580Z,99.90
2023-03-29T02:57:14.721Z,99.90
2023-03-29T02:58:47.945Z,99.90
2023-03-29T03:00:23.179Z,99.90
2023-03-29T03:01:56.825Z,99.90
2023-03-29T03:03:31.850Z,99.90
2023-03-29T03:05:05.754Z,99.90
2023-03-29T03:06:39.714Z,99.90
2023-03-29T03:08:13.318Z,99.90
2023-03-29T03:09:45.348Z,99.90
2023-03-29T03:11:18.584Z,99.90
2023-03-29T03:12:51.833Z,99.90
2023-03-29T03:14:24.844Z,99.90
2023-03-29T03:15:57.935Z,99.90
2023-03-29T03:17:33.088Z,99.90
2023-03-29T03:19:07.793Z,99.90
2023-03-29T03:20:41.144Z,99.90
2023-03-29T03:22:13.944Z,99.90
2023-03-29T03:23:47.295Z,99.90
2023-03-29T03:25:20.824Z,99.90
2023-03-29T03:26:53.816Z,99.90
2023-03-29T03:28:27.483Z,99.90
2023-03-29T03:30:00.587Z,99.90
2023-03-29T03:31:34.756Z,99.90
2023-03-29T03:33:07.887Z,99.90
2023-03-29T03:34:42.247Z,99.90
2023-03-29T03:36:15.412Z,99.90
2023-03-29T03:37:48.580Z,99.90
2023-03-29T03:39:21.822Z,99.90
2023-03-29T03:40:55.637Z,99.90
2023-03-29T03:42:29.476Z,99.90
2023-03-29T03:44:02.693Z,99.90
2023-03-29T03:45:35.712Z,99.90
2023-03-29T03:47:09.092Z,99.90
2023-03-29T03:48:42.074Z,99.90
2023-03-29T03:50:16.699Z,99.90
2023-03-29T03:51:51.039Z,99.90
2023-03-29T03:53:27.342Z,99.90
2023-03-29T03:55:02.804Z,99.90
2023-03-29T03:56:35.867Z,99.90
2023-03-29T03:58:09.211Z,99.90
2023-03-29T03:59:41.996Z,99.90
2023-03-29T04:01:14.196Z,99.90
2023-03-29T04:02:51.756Z,99.90
2023-03-29T04:04:25.649Z,99.90
2023-03-29T04:06:01.766Z,99.90
2023-03-29T04:07:35.780Z,99.90
2023-03-29T04:09:09.292Z,99.90
2023-03-29T04:10:44.064Z,99.90
2023-03-29T04:12:16.248Z,99.90
2023-03-29T04:13:49.343Z,99.90
2023-03-29T04:15:22.577Z,99.90
2023-03-29T04:16:54.977Z,99.90
2023-03-29T04:18:28.247Z,99.90
2023-03-29T04:20:07.576Z,99.90
2023-03-29T04:21:42.874Z,99.90
2023-03-29T04:23:16.428Z,99.90
2023-03-29T04:24:49.483Z,99.90
2023-03-29T04:26:23.113Z,99.90
2023-03-29T04:27:56.386Z,99.90
2023-03-29T04:29:28.987Z,99.90
2023-03-29T04:31:02.467Z,99.90
2023-03-29T04:32:36.080Z,99.90
2023-03-29T04:34:08.891Z,99.90
2023-03-29T04:35:42.431Z,99.90
2023-03-29T04:37:22.017Z,99.90
2023-03-29T04:38:55.026Z,99.90
2023-03-29T04:40:29.014Z,99.90
2023-03-29T04:42:02.995Z,99.90
2023-03-29T04:43:38.392Z,99.90
2023-03-29T04:45:14.134Z,99.90
2023-03-29T04:46:47.232Z,99.90
2023-03-29T04:48:20.699Z,99.90
2023-03-29T04:49:52.544Z,99.90
2023-03-29T04:51:25.845Z,99.90
2023-03-29T04:53:00.908Z,99.90
2023-03-29T04:54:33.901Z,99.90
2023-03-29T04:56:08.079Z,99.90
2023-03-29T04:57:41.321Z,99.90
2023-03-29T04:59:14.372Z,99.90
2023-03-29T05:00:47.286Z,99.90
2023-03-29T05:02:20.483Z,99.90
2023-03-29T05:03:53.587Z,99.90
2023-03-29T05:05:27.141Z,99.90
2023-03-29T05:07:01.561Z,99.90
2023-03-29T05:08:38.940Z,99.90
2023-03-29T05:10:12.343Z,99.90
2023-03-29T05:11:45.183Z,99.90
2023-03-29T05:13:18.098Z,99.90
2023-03-29T05:14:50.048Z,99.90
2023-03-29T05:16:23.157Z,99.90
2023-03-29T05:17:56.131Z,99.90
2023-03-29T05:19:29.484Z,99.90
2023-03-29T05:21:02.424Z,99.90
2023-03-29T05:22:36.269Z,99.90
2023-03-29T05:24:10.928Z,99.90
2023-03-29T05:25:43.854Z,99.90
2023-03-29T05:27:18.948Z,99.90
2023-03-29T05:28:52.420Z,99.90
2023-03-29T05:30:25.638Z,99.90
2023-03-29T05:31:59.457Z,99.90
2023-03-29T05:33:33.641Z,99.90
2023-03-29T05:35:07.038Z,99.90
2023-03-29T05:36:39.882Z,99.90
2023-03-29T05:38:13.679Z,99.90
2023-03-29T05:39:48.938Z,99.90
2023-03-29T05:41:22.767Z,99.90
2023-03-29T05:42:54.769Z,99.90
2023-03-29T05:44:27.683Z,99.90
2023-03-29T05:46:01.172Z,99.90
2023-03-29T05:47:34.196Z,99.90
2023-03-29T05:49:07.261Z,99.90
2023-03-29T05:50:40.252Z,99.90
2023-03-29T05:52:14.471Z,99.90
2023-03-29T05:53:47.437Z,99.90
2023-03-29T05:55:23.733Z,99.90
2023-03-29T05:56:56.797Z,99.90
2023-03-29T05:58:30.750Z,99.90
2023-03-29T06:00:17.720Z,99.90
2023-03-29T06:01:51.926Z,99.90
2023-03-29T06:03:27.810Z,99.90
2023-03-29T06:05:00.892Z,99.90
2023-03-29T06:06:33.950Z,99.90
2023-03-29T06:08:07.041Z,99.90
2023-03-29T06:09:40.710Z,99.90
2023-03-29T06:11:15.750Z,99.90
2023-03-29T06:12:49.398Z,99.90
2023-03-29T06:14:23.346Z,99.90
2023-03-29T06:15:56.524Z,99.90
2023-03-29T06:17:30.550Z,99.90
2023-03-29T06:19:03.631Z,99.90
2023-03-29T06:20:36.529Z,99.90
2023-03-29T06:22:09.543Z,99.90
2023-03-29T06:23:42.893Z,99.90
2023-03-29T06:25:17.530Z,99.90
2023-03-29T06:26:52.484Z,99.90
2023-03-29T06:28:25.927Z,99.90
2023-03-29T06:29:59.685Z,99.90
2023-03-29T06:31:32.762Z,99.90
2023-03-29T06:33:07.102Z,99.90
2023-03-29T06:34:40.919Z,99.90
2023-03-29T06:36:16.230Z,99.90
2023-03-29T06:37:50.459Z,99.90
2023-03-29T06:39:23.601Z,99.90
2023-03-29T06:41:03.977Z,99.90
2023-03-29T06:42:38.833Z,99.90
2023-03-29T06:44:11.790Z,99.90
2023-03-29T06:45:44.792Z,99.90
2023-03-29T06:47:18.312Z,99.90
2023-03-29T06:48:51.276Z,99.90
2023-03-29T06:50:24.310Z,99.90
2023-03-29T06:51:57.296Z,99.90
2023-03-29T06:53:30.683Z,99.90
2023-03-29T06:55:07.663Z,99.90
2023-03-29T06:56:41.542Z,99.90
2023-03-29T06:58:16.409Z,99.90
2023-03-29T06:59:49.278Z,99.90
2023-03-29T07:01:22.796Z,99.90
2023-03-29T07:02:58.008Z,99.90
2023-03-29T07:04:32.259Z,99.90
2023-03-29T07:06:10.008Z,99.90
2023-03-29T07:07:56.420Z,99.90
2023-03-29T07:09:30.845Z,99.90
2023-03-29T07:11:04.208Z,99.90
2023-03-29T07:12:38.120Z,99.90
2023-03-29T07:14:12.468Z,99.90
2023-03-29T07:15:45.779Z,99.90
2023-03-29T07:17:18.583Z,99.90
2023-03-29T07:18:51.554Z,99.90
2023-03-29T07:20:27.086Z,99.90
2023-03-29T07:22:00.183Z,99.90
2023-03-29T07:23:33.096Z,99.90
2023-03-29T07:25:09.156Z,99.90
2023-03-29T07:26:52.274Z,99.90
2023-03-29T07:28:29.739Z,99.90
2023-03-29T07:30:06.464Z,99.90
2023-03-29T07:31:40.903Z,99.90
2023-03-29T07:33:14.270Z,99.90
2023-03-29T07:34:48.266Z,99.90
2023-03-29T07:36:21.270Z,99.90
2023-03-29T07:37:54.963Z,99.90
2023-03-29T07:39:28.067Z,99.90
2023-03-29T07:41:04.350Z,99.90
2023-03-29T07:42:37.589Z,99.90
2023-03-29T07:44:10.528Z,99.90
2023-03-29T07:45:46.809Z,99.90
2023-03-29T07:47:19.777Z,99.90
2023-03-29T07:48:52.742Z,99.90
2023-03-29T07:50:26.580Z,99.90
2023-03-29T07:51:59.671Z,99.90
2023-03-29T07:53:32.792Z,99.90
2023-03-29T07:55:06.437Z,99.90
2023-03-29T07:56:39.435Z,99.90
2023-03-29T07:58:12.485Z,99.90
2023-03-29T07:59:45.371Z,99.90
2023-03-29T08:01:20.413Z,99.90
2023-03-29T08:02:53.782Z,99.90
2023-03-29T08:04:26.955Z,99.90
2023-03-29T08:06:02.385Z,99.90
2023-03-29T08:07:35.356Z,99.90
2023-03-29T08:09:08.776Z,99.90
2023-03-29T08:10:42.584Z,99.90
2023-03-29T08:12:15.810Z,99.90
2023-03-29T08:13:48.785Z,99.90
2023-03-29T08:15:21.832Z,99.90
2023-03-29T08:16:56.204Z,99.90
2023-03-29T08:18:29.128Z,99.90
2023-03-29T08:20:02.249Z,99.90
2023-03-29T08:21:35.581Z,99.90
2023-03-29T08:23:08.346Z,99.90
2023-03-29T08:24:41.369Z,99.90
2023-03-29T08:26:15.868Z,99.90
2023-03-29T08:27:48.806Z,99.90
2023-03-29T08:29:22.354Z,99.90
2023-03-29T08:30:55.367Z,99.90
2023-03-29T08:32:29.744Z,99.90
2023-03-29T08:34:03.005Z,99.90
2023-03-29T08:35:36.161Z,99.90
2023-03-29T08:37:09.803Z,99.90
2023-03-29T08:38:42.818Z,99.90
2023-03-29T08:40:21.356Z,99.90
2023-03-29T08:42:17.730Z,99.90
2023-03-29T08:44:01.453Z,99.90
2023-03-29T08:45:39.945Z,99.90
2023-03-29T08:47:20.260Z,99.90
2023-03-29T08:48:57.769Z,99.90
2023-03-29T08:50:36.619Z,99.90
2023-03-29T08:52:20.983Z,99.90
2023-03-29T08:53:56.927Z,99.90
2023-03-29T08:55:34.117Z,99.90
2023-03-29T08:57:13.181Z,99.90
2023-03-29T08:58:47.980Z,99.90
2023-03-29T09:00:25.622Z,99.80
2023-03-29T09:02:00.501Z,99.80
2023-03-29T09:03:37.498Z,99.90
2023-03-29T09:05:22.546Z,99.60
2023-03-29T09:06:55.824Z,99.20
2023-03-29T09:08:28.909Z,98.90
2023-03-29T09:10:02.167Z,99.10
2023-03-29T09:11:41.050Z,99.00
2023-03-29T09:13:31.772Z,98.90
2023-03-29T09:15:15.339Z,98.70
2023-03-29T09:16:55.287Z,98.30
2023-03-29T09:18:33.658Z,98.20
2023-03-29T09:20:21.565Z,97.50
2023-03-29T09:22:04.188Z,97.70
2023-03-29T09:23:56.269Z,97.50
2023-03-29T09:25:52.502Z,96.60
2023-03-29T09:27:31.411Z,96.00
2023-03-29T09:29:18.950Z,95.40
2023-03-29T09:30:58.486Z,94.20
2023-03-29T09:32:34.484Z,93.70
2023-03-29T09:34:15.692Z,93.20
2023-03-29T09:35:55.205Z,93.00
2023-03-29T09:37:33.087Z,92.50
2023-03-29T09:39:07.262Z,92.20
2023-03-29T09:40:46.096Z,92.30
2023-03-29T09:42:19.700Z,92.20
2023-03-29T09:43:55.524Z,92.20
2023-03-29T09:45:29.075Z,91.90
2023-03-29T09:47:08.441Z,91.70
2023-03-29T09:48:44.532Z,92.00
2023-03-29T09:50:31.020Z,92.10
2023-03-29T09:52:12.072Z,91.60
2023-03-29T09:53:45.050Z,91.50
2023-03-29T09:55:20.079Z,91.60
2023-03-29T09:56:53.512Z,91.00
2023-03-29T09:58:28.097Z,90.90
2023-03-29T10:00:05.652Z,90.90
2023-03-29T10:01:41.538Z,90.80
2023-03-29T10:03:19.545Z,90.80
2023-03-29T10:04:58.726Z,90.50
2023-03-29T10:06:31.707Z,90.50
2023-03-29T10:08:19.865Z,90.50
2023-03-29T10:09:55.164Z,90.40
2023-03-29T10:11:31.800Z,90.50
2023-03-29T10:13:07.189Z,90.30
2023-03-29T10:14:45.929Z,90.20
2023-03-29T10:16:22.971Z,89.60
2023-03-29T10:18:00.825Z,89.70
2023-03-29T10:19:35.665Z,89.20
2023-03-29T10:21:12.614Z,89.10
2023-03-29T10:22:50.375Z,89.30
2023-03-29T10:24:27.190Z,89.60
2023-03-29T10:26:00.471Z,89.10
2023-03-29T10:27:34.604Z,89.40
2023-03-29T10:29:08.821Z,89.10
2023-03-29T10:30:42.786Z,89.00
2023-03-29T10:32:18.387Z,88.80
2023-03-29T10:33:54.671Z,89.00
2023-03-29T10:35:33.371Z,89.80
2023-03-29T10:37:08.177Z,89.80
2023-03-29T10:38:41.151Z,89.20
2023-03-29T10:40:26.848Z,89.20
2023-03-29T10:42:01.314Z,88.30
2023-03-29T10:43:38.442Z,87.70
2023-03-29T10:45:22.988Z,87.30
2023-03-29T10:46:55.930Z,86.80
2023-03-29T10:48:32.290Z,86.80
2023-03-29T10:50:07.996Z,86.70
2023-03-29T10:51:46.292Z,86.70
2023-03-29T10:53:24.505Z,86.80
2023-03-29T10:54:59.968Z,86.20
2023-03-29T10:56:41.259Z,86.20
2023-03-29T10:58:27.321Z,86.00
2023-03-29T11:00:06.967Z,86.00
2023-03-29T11:01:51.967Z,86.50
2023-03-29T11:03:40.724Z,85.90
2023-03-29T11:05:24.479Z,85.40
2023-03-29T11:07:01.967Z,85.30
2023-03-29T11:08:49.765Z,85.30
2023-03-29T11:10:38.376Z,85.00
2023-03-29T11:12:20.841Z,84.40
2023-03-29T11:14:00.065Z,83.90
2023-03-29T11:15:42.800Z,85.20
2023-03-29T11:17:28.186Z,84.90
2023-03-29T11:19:21.810Z,85.10
2023-03-29T11:21:01.597Z,85.20
2023-03-29T11:22:46.281Z,85.20
2023-03-29T11:24:29.544Z,84.70
2023-03-29T11:26:12.543Z,84.50
2023-03-29T11:27:55.014Z,85.30
2023-03-29T11:29:32.060Z,85.50
2023-03-29T11:31:12.337Z,86.00
2023-03-29T11:32:53.095Z,86.00
2023-03-29T11:34:32.940Z,85.40
2023-03-29T11:36:16.609Z,85.40
2023-03-29T11:37:56.125Z,85.20
2023-03-29T11:39:38.600Z,85.00
2023-03-29T11:41:17.630Z,85.50
2023-03-29T11:42:56.827Z,85.60
2023-03-29T11:44:32.113Z,85.30
2023-03-29T11:46:13.476Z,85.90
2023-03-29T11:47:47.931Z,86.90
2023-03-29T11:49:24.576Z,86.90
2023-03-29T11:51:04.588Z,85.90
2023-03-29T11:52:41.900Z,85.30
2023-03-29T11:54:18.962Z,86.10
2023-03-29T11:55:53.778Z,85.20
2023-03-29T11:57:30.125Z,85.60
2023-03-29T11:59:12.634Z,84.90
2023-03-29T12:00:49.116Z,85.10
2023-03-29T12:02:29.463Z,85.40
2023-03-29T12:04:07.637Z,85.50
2023-03-29T12:05:45.015Z,85.60
2023-03-29T12:07:22.518Z,86.00
2023-03-29T12:09:00.489Z,86.40
2023-03-29T12:10:38.013Z,86.90
2023-03-29T12:12:16.498Z,87.00
2023-03-29T12:13:53.582Z,87.00
2023-03-29T12:15:32.026Z,87.30
2023-03-29T12:17:10.426Z,87.50
2023-03-29T12:18:46.811Z,87.60
2023-03-29T12:20:26.970Z,87.20
2023-03-29T12:22:01.552Z,87.40
2023-03-29T12:23:34.901Z,87.70
2023-03-29T12:25:10.392Z,87.80
2023-03-29T12:27:08.240Z,87.90
2023-03-29T12:29:10.723Z,88.00
2023-03-29T12:30:57.441Z,88.00
2023-03-29T12:32:44.447Z,87.50
2023-03-29T12:34:48.011Z,86.60
2023-03-29T12:36:39.630Z,86.50
2023-03-29T12:38:19.331Z,87.90
2023-03-29T12:39:53.428Z,88.50
2023-03-29T12:41:26.422Z,88.80
2023-03-29T12:43:03.966Z,88.80
2023-03-29T12:44:37.126Z,89.00
2023-03-29T12:46:17.349Z,89.00
2023-03-29T12:47:52.801Z,89.10
2023-03-29T12:49:30.183Z,89.60
2023-03-29T12:51:06.291Z,88.90
2023-03-29T12:52:43.064Z,88.70
2023-03-29T12:54:18.355Z,88.60
2023-03-29T12:55:56.883Z,88.70
2023-03-29T12:57:41.117Z,88.50
2023-03-29T12:59:27.528Z,88.70
2023-03-29T13:01:07.516Z,88.50
2023-03-29T13:02:42.051Z,88.80
2023-03-29T13:04:18.717Z,89.10
2023-03-29T13:06:02.535Z,89.10
2023-03-29T13:07:47.498Z,89.10
2023-03-29T13:09:25.222Z,89.50
2023-03-29T13:10:58.384Z,89.50
2023-03-29T13:12:37.811Z,89.80
2023-03-29T13:14:16.973Z,89.50
2023-03-29T13:15:50.131Z,89.80
2023-03-29T13:17:31.891Z,89.80
2023-03-29T13:19:22.910Z,89.50
2023-03-29T13:21:05.477Z,90.40
2023-03-29T13:22:48.880Z,90.30
2023-03-29T13:24:47.864Z,90.30
2023-03-29T13:26:46.864Z,90.80
2023-03-29T13:28:27.420Z,91.00
2023-03-29T13:30:21.098Z,90.70
2023-03-29T13:31:58.308Z,90.30
2023-03-29T13:33:49.798Z,90.50
2023-03-29T13:35:35.318Z,90.70
2023-03-29T13:37:23.859Z,90.70
2023-03-29T13:38:56.899Z,90.80
2023-03-29T13:40:43.937Z,90.70
2023-03-29T13:42:22.566Z,90.60
2023-03-29T13:43:57.469Z,90.40
2023-03-29T13:45:33.410Z,90.30
2023-03-29T13:47:16.354Z,90.30
2023-03-29T13:48:59.286Z,90.20
2023-03-29T13:50:38.832Z,90.00
2023-03-29T13:52:17.858Z,90.00
2023-03-29T13:53:56.400Z,90.00
2023-03-29T13:55:34.418Z,89.40
2023-03-29T13:57:15.466Z,88.90
2023-03-29T13:58:52.276Z,88.40
2023-03-29T14:00:30.444Z,88.80
2023-03-29T14:02:05.790Z,89.50
2023-03-29T14:03:44.759Z,89.90
2023-03-29T14:05:20.624Z,89.80
2023-03-29T14:06:56.726Z,90.10
2023-03-29T14:08:34.049Z,90.30
2023-03-29T14:10:13.445Z,90.70
2023-03-29T14:11:48.482Z,90.40
2023-03-29T14:13:24.085Z,90.40
2023-03-29T14:15:02.542Z,90.30
2023-03-29T14:16:38.620Z,90.20
2023-03-29T14:18:13.162Z,90.20
2023-03-29T14:19:46.729Z,90.20
2023-03-29T14:21:20.983Z,90.20
2023-03-29T14:22:55.350Z,89.20
2023-03-29T14:24:35.151Z,89.60
2023-03-29T14:26:11.694Z,89.70
2023-03-29T14:27:45.017Z,89.30
2023-03-29T14:29:18.329Z,88.90
2023-03-29T14:30:52.752Z,89.00
2023-03-29T14:32:30.906Z,89.50
2023-03-29T14:34:06.692Z,90.00
2023-03-29T14:35:40.329Z,90.10
2023-03-29T14:37:14.920Z,90.30
2023-03-29T14:38:52.398Z,90.40
2023-03-29T14:40:27.542Z,90.50
2023-03-29T14:42:01.019Z,90.50
2023-03-29T14:43:33.984Z,90.40
2023-03-29T14:45:09.249Z,90.50
2023-03-29T14:46:44.698Z,90.50
2023-03-29T14:48:17.918Z,90.40
2023-03-29T14:49:51.371Z,90.20
2023-03-29T14:51:27.135Z,89.70
2023-03-29T14:53:01.438Z,89.70
2023-03-29T14:54:36.707Z,89.70
2023-03-29T14:56:12.336Z,90.00
2023-03-29T14:57:45.370Z,90.20
2023-03-29T14:59:27.173Z,90.30
2023-03-29T15:01:07.003Z,90.40
2023-03-29T15:02:49.370Z,90.70
2023-03-29T15:04:22.609Z,90.70
2023-03-29T15:05:58.182Z,90.60
2023-03-29T15:07:32.310Z,90.50
2023-03-29T15:09:06.950Z,90.60
2023-03-29T15:10:44.752Z,90.60
2023-03-29T15:12:18.599Z,90.40
2023-03-29T15:13:56.950Z,90.50
2023-03-29T15:15:31.693Z,90.40
2023-03-29T15:17:07.633Z,90.30
2023-03-29T15:18:43.004Z,90.10
2023-03-29T15:20:21.545Z,90.30
2023-03-29T15:21:54.676Z,90.00
2023-03-29T15:23:34.927Z,90.00
2023-03-29T15:25:17.091Z,90.00
2023-03-29T15:27:02.963Z,90.10
2023-03-29T15:28:46.699Z,90.30
2023-03-29T15:30:19.930Z,90.40
2023-03-29T15:31:58.972Z,90.40
2023-03-29T15:33:37.317Z,90.50
2023-03-29T15:35:23.358Z,90.50
2023-03-29T15:36:57.299Z,90.30
2023-03-29T15:38:40.910Z,90.30
2023-03-29T15:40:17.567Z,90.20
2023-03-29T15:41:52.799Z,90.20
2023-03-29T15:43:27.364Z,90.50
2023-03-29T15:45:00.308Z,90.20
2023-03-29T15:46:33.258Z,90.30
2023-03-29T15:48:15.513Z,90.40
2023-03-29T15:49:48.571Z,90.30
2023-03-29T15:51:21.913Z,90.40
2023-03-29T15:53:08.603Z,90.40
2023-03-29T15:54:47.396Z,90.30
2023-03-29T15:56:23.302Z,90.20
2023-03-29T15:57:59.100Z,90.20
2023-03-29T15:59:33.979Z,90.50
2023-03-29T16:01:19.189Z,90.30
2023-03-29T16:02:52.752Z,90.20
2023-03-29T16:04:27.085Z,90.20
2023-03-29T16:06:00.141Z,90.30
2023-03-29T16:07:33.252Z,90.50
2023-03-29T16:09:07.688Z,90.40
2023-03-29T16:10:41.322Z,90.50
2023-03-29T16:12:16.086Z,90.70
2023-03-29T16:13:49.230Z,90.80
2023-03-29T16:15:27.081Z,90.90
2023-03-29T16:17:02.844Z,91.00
2023-03-29T16:18:36.254Z,91.30
2023-03-29T16:20:10.086Z,91.40
2023-03-29T16:21:43.510Z,91.60
2023-03-29T16:23:16.755Z,91.60
2023-03-29T16:24:49.626Z,91.80
2023-03-29T16:26:23.060Z,91.80
2023-03-29T16:27:56.200Z,91.80
2023-03-29T16:29:29.230Z,91.90
2023-03-29T16:31:03.777Z,92.00
2023-03-29T16:32:36.786Z,92.00
2023-03-29T16:34:13.765Z,92.00
2023-03-29T16:35:46.803Z,92.00
2023-03-29T16:37:19.993Z,92.00
2023-03-29T16:38:53.546Z,92.00
2023-03-29T16:40:26.620Z,92.10
2023-03-29T16:41:59.743Z,92.20
2023-03-29T16:43:32.621Z,92.20
2023-03-29T16:45:06.561Z,92.30
2023-03-29T16:46:41.505Z,92.30
2023-03-29T16:48:17.267Z,92.40
2023-03-29T16:49:50.322Z,92.40
2023-03-29T16:51:23.297Z,92.40
2023-03-29T16:52:56.205Z,92.40
2023-03-29T16:54:29.690Z,92.40
2023-03-29T16:56:02.874Z,92.50
2023-03-29T16:57:36.814Z,92.60
2023-03-29T16:59:10.464Z,92.60
2023-03-29T17:00:46.363Z,92.70
2023-03-29T17:02:22.582Z,92.90
2023-03-29T17:03:55.589Z,93.00
2023-03-29T17:05:28.893Z,93.00
2023-03-29T17:07:01.673Z,93.20
2023-03-29T17:08:35.350Z,93.20
2023-03-29T17:10:09.333Z,93.40
2023-03-29T17:11:42.352Z,93.50
2023-03-29T17:13:15.308Z,93.60
2023-03-29T17:14:48.518Z,93.80
2023-03-29T17:16:21.723Z,93.90
2023-03-29T17:17:56.072Z,94.10
2023-03-29T17:19:28.895Z,94.10
2023-03-29T17:21:03.085Z,94.20
2023-03-29T17:22:36.465Z,94.20
2023-03-29T17:24:10.482Z,94.30
2023-03-29T17:25:43.593Z,94.50
2023-03-29T17:27:16.604Z,94.60
2023-03-29T17:28:49.608Z,94.70
2023-03-29T17:30:22.740Z,94.80
2023-03-29T17:31:56.483Z,94.90
2023-03-29T17:33:31.203Z,95.10
2023-03-29T17:35:04.889Z,95.10
2023-03-29T17:36:38.029Z,95.20
2023-03-29T17:38:11.022Z,95.40
2023-03-29T17:39:44.038Z,95.40
2023-03-29T17:41:17.192Z,95.30
2023-03-29T17:42:52.364Z,95.40
2023-03-29T17:44:25.462Z,95.40
2023-03-29T17:45:58.372Z,95.50
2023-03-29T17:47:31.438Z,95.60
2023-03-29T17:49:06.253Z,95.60
2023-03-29T17:50:39.244Z,95.70
2023-03-29T17:52:12.192Z,96.00
2023-03-29T17:53:45.375Z,96.00
2023-03-29T17:55:18.696Z,96.00
2023-03-29T17:56:51.476Z,96.10
2023-03-29T17:58:24.391Z,96.10
2023-03-29T17:59:57.307Z,96.30
2023-03-29T18:01:30.799Z,96.20
2023-03-29T18:03:03.944Z,96.30
2023-03-29T18:04:38.215Z,96.60
2023-03-29T18:06:11.572Z,96.60
2023-03-29T18:07:44.409Z,96.60
2023-03-29T18:09:17.414Z,96.60
2023-03-29T18:10:50.540Z,96.60
2023-03-29T18:12:25.933Z,96.70
2023-03-29T18:14:00.600Z,96.60
2023-03-29T18:15:33.547Z,96.70
2023-03-29T18:17:06.601Z,96.70
2023-03-29T18:18:41.078Z,96.90
2023-03-29T18:20:17.120Z,97.00
2023-03-29T18:21:51.128Z,97.00
2023-03-29T18:23:24.046Z,97.00
2023-03-29T18:24:57.601Z,97.10
2023-03-29T18:26:30.899Z,97.10
2023-03-29T18:28:03.802Z,97.10
2023-03-29T18:29:36.795Z,97.30
2023-03-29T18:31:10.043Z,97.30
2023-03-29T18:32:43.106Z,97.40
2023-03-29T18:34:16.228Z,97.50
2023-03-29T18:35:51.426Z,97.50
2023-03-29T18:37:24.472Z,97.60
2023-03-29T18:39:05.250Z,97.70
2023-03-29T18:40:39.140Z,97.70
2023-03-29T18:42:12.758Z,97.60
2023-03-29T18:43:47.246Z,97.80
2023-03-29T18:45:21.281Z,97.70
2023-03-29T18:46:54.629Z,97.80
2023-03-29T18:48:27.481Z,97.70
2023-03-29T18:50:01.021Z,97.80
2023-03-29T18:51:35.722Z,97.70
2023-03-29T18:53:08.647Z,97.70
2023-03-29T18:54:41.796Z,97.80
2023-03-29T18:56:14.752Z,98.00
2023-03-29T18:57:47.663Z,98.10
2023-03-29T18:59:20.830Z,98.20
2023-03-29T19:00:54.686Z,98.20
2023-03-29T19:02:27.623Z,98.30
2023-03-29T19:04:00.703Z,98.30
2023-03-29T19:05:34.040Z,98.30
2023-03-29T19:07:08.988Z,98.50
2023-03-29T19:08:42.344Z,98.60
2023-03-29T19:10:15.366Z,98.60
2023-03-29T19:11:48.869Z,98.70
2023-03-29T19:13:21.874Z,98.80
2023-03-29T19:14:54.852Z,98.80
2023-03-29T19:16:28.416Z,99.00
2023-03-29T19:18:01.507Z,99.00
2023-03-29T19:19:34.514Z,99.30
2023-03-29T19:21:07.492Z,99.20
2023-03-29T19:22:41.877Z,99.30
2023-03-29T19:24:15.349Z,99.30
2023-03-29T19:25:53.267Z,99.30
2023-03-29T19:27:26.554Z,99.30
2023-03-29T19:28:59.415Z,99.30
2023-03-29T19:30:32.885Z,99.30
2023-03-29T19:32:06.797Z,99.30
2023-03-29T19:33:40.876Z,99.30
2023-03-29T19:35:14.028Z,99.30
2023-03-29T19:36:47.199Z,99.40
2023-03-29T19:38:22.054Z,99.50
2023-03-29T19:39:57.063Z,99.50
2023-03-29T19:41:30.030Z,99.70
2023-03-29T19:43:03.229Z,99.90
2023-03-29T19:44:38.270Z,99.90
2023-03-29T19:46:13.306Z,99.90
2023-03-29T19:47:47.573Z,99.90
2023-03-29T19:49:20.793Z,99.90
2023-03-29T19:50:53.761Z,99.90
2023-03-29T19:52:27.842Z,99.90
2023-03-29T19:54:02.677Z,99.90
2023-03-29T19:55:37.827Z,99.90
2023-03-29T19:57:10.882Z,99.90
2023-03-29T19:58:43.896Z,99.90
2023-03-29T20:00:18.795Z,99.90
2023-03-29T20:01:51.914Z,99.90
2023-03-29T20:03:28.325Z,99.90
2023-03-29T20:05:01.655Z,99.90
2023-03-29T20:06:34.598Z,99.90
2023-03-29T20:08:08.360Z,99.90
2023-03-29T20:09:45.223Z,99.90
2023-03-29T20:11:23.635Z,99.90
2023-03-29T20:12:56.960Z,99.90
2023-03-29T20:14:30.093Z,99.90
2023-03-29T20:16:03.561Z,99.90
2023-03-29T20:17:40.731Z,99.90
2023-03-29T20:19:14.792Z,99.90
2023-03-29T20:20:49.758Z,99.90
2023-03-29T20:22:26.091Z,99.90
2023-03-29T20:23:59.208Z,99.90
2023-03-29T20:25:33.701Z,99.90
2023-03-29T20:27:06.693Z,99.90
2023-03-29T20:28:39.697Z,99.90
2023-03-29T20:30:14.436Z,99.90
2023-03-29T20:31:47.884Z,99.90
2023-03-29T20:33:21.769Z,99.90
2023-03-29T20:34:54.850Z,99.90
2023-03-29T20:36:30.738Z,99.90